Decoded Metar for SBFL (FLORIANOPOLIS in BRAZIL) (IATA:FLN) | Meteo·Mobile Aviation Weather
aviador You're here:

SBFL Decoded Metar

FLORIANOPOLIS in BRAZIL
Report Time2019-01-16 17:00:00
UTC Time2019-01-16 17:58:10
Flight Rules vfr VFR
Wind010° at 10 kt
W.Decomp.*RWY 03: 10.0 kt HW 0.2 kt LCW
RWY 32: 3.6 kt HW 9.3 kt RCW
W.Rank010° ranks 3
Current wind is above 010° avg. (8.7)
Visibility9999 m
Phenomena:N/A
Clouds:N/A
Expected CloudBase > 4,800 ft AGL from Temp-Dew spread
CeilingNone
Temp35°C (ISA +20)
Dew Point23°C (50% RH)
Heat Index40.7°C
QNH1008 hPa
Density Alt2,825 ft
Elevation16 ft
Report Wrong Elevation
Raw Report
METAR SBFL 161700Z 01010KT CAVOK 35/23 Q1008=

Extra information for SBFL:More info

Metar Taf Metar & Taf Last 4 Metars F.Rules Stats Wind Profile Meteogram Temp Stats Airport Information Weather charts Add Link Nearby VenuesMetar ALERT Operation Metar Decoded Social comments